createdAt,value
2019-01-26T00:01:34.279Z,20.35
2019-01-26T00:04:03.197Z,28.90
2019-01-26T00:06:32.188Z,28.47
2019-01-26T00:09:01.488Z,22.85
2019-01-26T00:11:30.377Z,18.15
2019-01-26T00:13:59.374Z,25.20
2019-01-26T00:16:28.363Z,25.15
2019-01-26T00:18:56.991Z,28.83
2019-01-26T00:21:25.681Z,27.07
2019-01-26T00:23:54.633Z,26.25
2019-01-26T00:26:23.624Z,26.90
2019-01-26T00:28:52.266Z,32.00
2019-01-26T00:31:20.992Z,31.55
2019-01-26T00:33:49.990Z,28.95
2019-01-26T00:36:18.981Z,32.58
2019-01-26T00:38:47.872Z,33.73
2019-01-26T00:41:16.870Z,26.87
2019-01-26T00:43:45.876Z,31.42
2019-01-26T00:46:14.857Z,29.57
2019-01-26T00:48:43.531Z,31.33
2019-01-26T00:51:17.095Z,29.82
2019-01-26T00:53:42.981Z,32.53
2019-01-26T00:56:12.056Z,31.68
2019-01-26T00:58:41.058Z,32.65
2019-01-26T01:01:10.154Z,30.90
2019-01-26T01:03:39.226Z,35.28
2019-01-26T01:06:07.973Z,29.92
2019-01-26T01:08:37.030Z,35.00
2019-01-26T01:11:05.752Z,34.80
2019-01-26T01:13:34.709Z,34.70
2019-01-26T01:16:03.907Z,30.15
2019-01-26T01:18:32.710Z,30.08
2019-01-26T01:21:01.897Z,34.10
2019-01-26T01:23:30.702Z,31.10
2019-01-26T01:25:59.678Z,33.02
2019-01-26T01:28:28.671Z,30.10
2019-01-26T01:30:58.075Z,35.23
2019-01-26T01:33:36.828Z,34.08
2019-01-26T01:36:05.556Z,32.45
2019-01-26T01:38:34.578Z,33.40
2019-01-26T01:41:03.205Z,34.75
2019-01-26T01:43:32.153Z,37.48
2019-01-26T01:46:00.782Z,30.70
2019-01-26T01:48:30.038Z,34.08
2019-01-26T01:50:59.031Z,33.58
2019-01-26T01:53:28.040Z,34.00
2019-01-26T01:55:57.021Z,35.23
2019-01-26T01:58:25.684Z,30.43
2019-01-26T02:00:54.700Z,35.45
2019-01-26T02:03:23.731Z,34.53
2019-01-26T02:05:52.469Z,35.85
2019-01-26T02:08:21.375Z,37.20
2019-01-26T02:10:50.097Z,33.38
2019-01-26T02:13:18.747Z,31.93
2019-01-26T02:15:47.639Z,36.13
2019-01-26T02:18:16.278Z,35.70
2019-01-26T02:20:44.986Z,29.52
2019-01-26T02:23:13.902Z,36.15
2019-01-26T02:25:42.850Z,34.67
2019-01-26T02:28:11.471Z,35.80
2019-01-26T02:30:40.470Z,38.28
2019-01-26T02:33:09.113Z,36.60
2019-01-26T02:35:37.823Z,33.65
2019-01-26T02:38:06.761Z,37.35
2019-01-26T02:40:35.909Z,35.30
2019-01-26T02:43:04.548Z,38.10
2019-01-26T02:45:33.297Z,37.28
2019-01-26T02:48:02.202Z,32.80
2019-01-26T02:50:30.904Z,39.80
2019-01-26T02:52:59.647Z,34.55
2019-01-26T02:55:28.571Z,34.40
2019-01-26T02:57:57.564Z,37.70
2019-01-26T03:00:26.291Z,37.20
2019-01-26T03:02:55.549Z,36.13
2019-01-26T03:05:24.212Z,38.92
2019-01-26T03:07:52.895Z,36.53
2019-01-26T03:10:23.041Z,38.02
2019-01-26T03:12:52.041Z,38.53
2019-01-26T03:15:22.027Z,36.10
2019-01-26T03:17:51.251Z,39.03
2019-01-26T03:20:19.946Z,28.30
2019-01-26T03:22:49.245Z,35.58
2019-01-26T03:25:18.260Z,34.30
2019-01-26T03:27:47.123Z,32.17
2019-01-26T03:30:18.252Z,38.13
2019-01-26T03:32:46.919Z,36.73
2019-01-26T03:35:15.702Z,35.30
2019-01-26T03:37:44.417Z,39.42
2019-01-26T03:40:14.362Z,38.75
2019-01-26T03:42:43.133Z,38.42
2019-01-26T03:45:13.054Z,39.78
2019-01-26T03:47:41.952Z,39.10
2019-01-26T03:50:11.536Z,36.58
2019-01-26T03:52:40.524Z,38.23
2019-01-26T03:55:10.884Z,37.70
2019-01-26T03:57:39.966Z,42.05
2019-01-26T04:00:18.260Z,40.25
2019-01-26T04:02:47.284Z,37.15
2019-01-26T04:05:16.575Z,39.05
2019-01-26T04:07:45.671Z,36.28
2019-01-26T04:10:14.501Z,37.45
2019-01-26T04:12:43.285Z,39.88
2019-01-26T04:15:13.057Z,39.98
2019-01-26T04:17:42.463Z,39.63
2019-01-26T04:20:13.983Z,41.65
2019-01-26T04:22:42.715Z,39.30
2019-01-26T04:25:11.807Z,41.13
2019-01-26T04:27:40.476Z,37.48
2019-01-26T04:30:12.345Z,38.95
2019-01-26T04:32:41.009Z,40.88
2019-01-26T04:35:09.975Z,40.52
2019-01-26T04:37:39.019Z,39.85
2019-01-26T04:40:10.501Z,39.63
2019-01-26T04:42:39.614Z,38.63
2019-01-26T04:45:11.886Z,40.95
2019-01-26T04:47:40.500Z,42.98
2019-01-26T04:50:11.565Z,39.53
2019-01-26T04:52:40.459Z,40.95
2019-01-26T04:55:11.398Z,40.33
2019-01-26T04:57:40.508Z,42.50
2019-01-26T05:00:13.861Z,43.65
2019-01-26T05:02:42.495Z,43.05
2019-01-26T05:05:11.408Z,41.53
2019-01-26T05:07:40.028Z,42.83
2019-01-26T05:10:10.707Z,40.25
2019-01-26T05:12:39.344Z,43.23
2019-01-26T05:15:09.081Z,38.45
2019-01-26T05:17:39.503Z,44.80
2019-01-26T05:20:11.354Z,45.73
2019-01-26T05:22:40.017Z,43.23
2019-01-26T05:25:09.053Z,41.28
2019-01-26T05:27:37.732Z,42.10
2019-01-26T05:30:10.007Z,43.85
2019-01-26T05:32:38.854Z,39.58
2019-01-26T05:35:07.651Z,44.77
2019-01-26T05:37:36.882Z,45.48
2019-01-26T05:40:07.924Z,43.58
2019-01-26T05:42:36.890Z,42.10
2019-01-26T05:45:07.125Z,41.33
2019-01-26T05:47:35.805Z,42.00
2019-01-26T05:50:06.562Z,43.38
2019-01-26T05:52:35.454Z,41.08
2019-01-26T05:55:04.730Z,45.43
2019-01-26T05:57:33.654Z,40.80
2019-01-26T06:00:02.370Z,43.48
2019-01-26T06:02:31.949Z,43.92
2019-01-26T06:05:00.595Z,36.15
2019-01-26T06:07:29.516Z,41.50
2019-01-26T06:09:58.266Z,42.98
2019-01-26T06:12:27.293Z,42.98
2019-01-26T06:14:56.608Z,42.20
2019-01-26T06:17:25.350Z,40.60
2019-01-26T06:19:54.007Z,41.45
2019-01-26T06:22:22.978Z,41.73
2019-01-26T06:24:51.867Z,39.30
2019-01-26T06:27:20.759Z,41.90
2019-01-26T06:29:49.959Z,40.67
2019-01-26T06:32:18.601Z,41.88
2019-01-26T06:34:47.531Z,37.15
2019-01-26T06:37:16.176Z,34.05
2019-01-26T06:39:45.517Z,38.10
2019-01-26T06:42:14.180Z,40.67
2019-01-26T06:44:43.403Z,41.68
2019-01-26T06:47:12.029Z,39.40
2019-01-26T06:49:40.988Z,44.45
2019-01-26T06:52:09.727Z,42.05
2019-01-26T06:54:38.348Z,38.23
2019-01-26T06:57:07.122Z,39.53
2019-01-26T06:59:35.852Z,41.60
2019-01-26T07:02:04.821Z,41.68
2019-01-26T07:04:51.328Z,40.90
2019-01-26T07:07:20.932Z,40.92
2019-01-26T07:09:49.603Z,40.63
2019-01-26T07:12:18.343Z,40.95
2019-01-26T07:14:46.994Z,42.60
2019-01-26T07:17:15.641Z,45.50
2019-01-26T07:19:44.295Z,39.53
2019-01-26T07:22:13.254Z,38.50
2019-01-26T07:24:42.732Z,41.15
2019-01-26T07:27:11.653Z,42.80
2019-01-26T07:29:40.797Z,41.18
2019-01-26T07:32:09.469Z,36.08
2019-01-26T07:34:38.431Z,40.33
2019-01-26T07:37:07.428Z,39.73
2019-01-26T07:39:36.423Z,40.35
2019-01-26T07:42:05.261Z,40.90
2019-01-26T07:44:34.236Z,38.90
2019-01-26T07:47:03.191Z,38.95
2019-01-26T07:49:31.821Z,39.45
2019-01-26T07:52:01.179Z,39.65
2019-01-26T07:54:29.818Z,39.75
2019-01-26T07:56:58.757Z,40.60
2019-01-26T07:59:27.749Z,40.67
2019-01-26T08:01:56.392Z,40.50
2019-01-26T08:04:25.428Z,41.58
2019-01-26T08:06:54.433Z,43.78
2019-01-26T08:09:23.143Z,39.53
2019-01-26T08:11:52.112Z,36.88
2019-01-26T08:14:20.771Z,41.02
2019-01-26T08:16:49.509Z,42.95
2019-01-26T08:19:18.785Z,43.33
2019-01-26T08:21:47.407Z,44.83
2019-01-26T08:24:16.160Z,43.95
2019-01-26T08:26:45.359Z,43.45
2019-01-26T08:29:13.989Z,43.13
2019-01-26T08:31:42.893Z,43.13
2019-01-26T08:34:11.563Z,42.85
2019-01-26T08:37:26.173Z,41.42
2019-01-26T08:41:04.206Z,41.77
2019-01-26T08:47:22.913Z,41.58
2019-01-26T08:49:51.970Z,42.93
2019-01-26T08:52:20.635Z,43.87
2019-01-26T08:54:49.314Z,45.30
2019-01-26T08:57:17.950Z,43.00
2019-01-26T08:59:46.914Z,43.85
2019-01-26T09:02:45.302Z,42.45
2019-01-26T09:05:16.030Z,46.98
2019-01-26T09:07:44.909Z,45.65
2019-01-26T09:10:13.873Z,44.40
2019-01-26T09:12:43.117Z,43.40
2019-01-26T09:15:12.121Z,40.70
2019-01-26T09:17:40.950Z,38.53
2019-01-26T09:20:11.784Z,44.27
2019-01-26T09:22:40.646Z,39.60
2019-01-26T09:25:09.721Z,40.98
2019-01-26T09:27:39.153Z,39.73
2019-01-26T09:30:08.538Z,42.62
2019-01-26T09:32:37.264Z,41.02
2019-01-26T09:35:06.119Z,40.67
2019-01-26T09:37:34.760Z,44.23
2019-01-26T09:40:04.408Z,39.08
2019-01-26T09:42:33.109Z,39.80
2019-01-26T09:45:01.773Z,39.83
2019-01-26T09:47:30.422Z,38.17
2019-01-26T09:53:27.497Z,38.10
2019-01-26T09:55:56.797Z,39.27
2019-01-26T09:58:25.744Z,39.33
2019-01-26T10:00:54.488Z,36.23
2019-01-26T10:03:23.408Z,37.95
2019-01-26T10:05:52.052Z,38.13
2019-01-26T10:08:20.987Z,36.55
2019-01-26T10:10:49.876Z,35.38
2019-01-26T10:13:18.498Z,35.85
2019-01-26T10:15:50.936Z,36.68
2019-01-26T10:18:19.815Z,30.95
2019-01-26T10:20:59.729Z,38.40
2019-01-26T10:23:28.630Z,37.23
2019-01-26T10:26:00.174Z,36.98
2019-01-26T10:28:29.339Z,35.10
2019-01-26T10:31:02.394Z,36.73
2019-01-26T10:33:37.590Z,36.25
2019-01-26T10:36:25.567Z,36.53
2019-01-26T10:42:57.453Z,37.28
2019-01-26T10:45:27.355Z,33.18
2019-01-26T10:47:56.384Z,38.38
2019-01-26T10:50:25.375Z,35.13
2019-01-26T10:52:54.152Z,35.70
2019-01-26T10:55:23.162Z,36.33
2019-01-26T10:57:52.023Z,36.23
2019-01-26T11:00:22.184Z,37.70
2019-01-26T11:02:51.160Z,35.35
2019-01-26T11:05:20.260Z,36.03
2019-01-26T11:07:49.356Z,34.90
2019-01-26T11:10:18.346Z,41.50
2019-01-26T11:12:47.076Z,35.73
2019-01-26T11:15:16.040Z,36.15
2019-01-26T11:18:26.829Z,34.48
2019-01-26T11:20:55.757Z,34.23
2019-01-26T11:23:24.641Z,30.75
2019-01-26T11:25:53.301Z,33.00
2019-01-26T11:28:21.983Z,33.90
2019-01-26T11:30:50.645Z,37.85
2019-01-26T11:33:19.651Z,30.35
2019-01-26T11:35:48.353Z,32.65
2019-01-26T11:38:17.339Z,28.17
2019-01-26T11:40:46.027Z,33.80
2019-01-26T11:43:14.769Z,31.97
2019-01-26T11:46:03.779Z,32.10
2019-01-26T11:48:35.454Z,30.00
2019-01-26T11:51:14.922Z,29.87
2019-01-26T11:53:43.912Z,31.95
2019-01-26T11:56:37.745Z,30.15
2019-01-26T11:59:06.661Z,30.62
2019-01-26T12:01:42.693Z,29.90
2019-01-26T12:04:19.607Z,33.13
2019-01-26T12:06:56.509Z,29.43
2019-01-26T12:09:25.332Z,28.60
2019-01-26T12:11:54.249Z,32.10
2019-01-26T12:14:23.598Z,29.40
2019-01-26T12:16:52.553Z,31.20
2019-01-26T12:19:22.496Z,30.50
2019-01-26T12:21:51.540Z,31.40
2019-01-26T12:24:26.760Z,29.77
2019-01-26T12:28:18.903Z,30.52
2019-01-26T12:30:52.676Z,29.87
2019-01-26T12:33:21.717Z,28.93
2019-01-26T12:35:50.711Z,29.47
2019-01-26T12:38:20.413Z,29.43
2019-01-26T12:40:49.634Z,29.17
2019-01-26T12:43:18.359Z,28.67
2019-01-26T12:45:47.305Z,29.43
2019-01-26T12:48:15.955Z,29.40
2019-01-26T12:50:44.708Z,29.13
2019-01-26T12:53:13.687Z,29.53
2019-01-26T12:55:42.851Z,31.73
2019-01-26T12:58:11.612Z,32.87
2019-01-26T13:00:40.368Z,31.63
2019-01-26T13:03:09.428Z,32.13
2019-01-26T13:05:38.495Z,30.10
2019-01-26T13:08:07.615Z,29.50
2019-01-26T13:10:39.730Z,27.13
2019-01-26T13:13:08.471Z,28.67
2019-01-26T13:15:37.564Z,27.10
2019-01-26T13:18:06.388Z,26.23
2019-01-26T13:20:35.095Z,24.70
2019-01-26T13:23:04.535Z,27.83
2019-01-26T13:25:33.830Z,24.10
2019-01-26T13:28:02.626Z,24.43
2019-01-26T13:30:31.679Z,25.60
2019-01-26T13:33:00.324Z,25.70
2019-01-26T13:35:29.051Z,23.17
2019-01-26T13:37:58.080Z,25.17
2019-01-26T13:40:26.876Z,26.90
2019-01-26T13:42:55.875Z,24.00
2019-01-26T13:45:24.902Z,24.27
2019-01-26T13:47:53.653Z,25.77
2019-01-26T13:50:22.321Z,21.70
2019-01-26T13:52:51.570Z,22.93
2019-01-26T13:55:20.813Z,23.67
2019-01-26T13:57:49.744Z,24.43
2019-01-26T14:00:22.987Z,23.03
2019-01-26T14:02:51.994Z,22.47
2019-01-26T14:05:21.120Z,23.93
2019-01-26T14:07:49.777Z,25.10
2019-01-26T14:10:20.405Z,23.20
2019-01-26T14:12:49.294Z,23.37
2019-01-26T14:15:18.547Z,21.63
2019-01-26T14:17:47.660Z,23.13
2019-01-26T14:20:24.476Z,20.37
2019-01-26T14:22:53.469Z,20.87
2019-01-26T14:25:22.417Z,22.17
2019-01-26T14:27:53.263Z,20.20
2019-01-26T14:30:31.262Z,21.17
2019-01-26T14:33:00.189Z,21.33
2019-01-26T14:35:29.242Z,20.73
2019-01-26T14:37:58.115Z,20.97
2019-01-26T14:40:26.798Z,21.83
2019-01-26T14:42:58.857Z,22.87
2019-01-26T14:45:29.175Z,18.23
2019-01-26T14:47:58.508Z,19.10
2019-01-26T14:50:27.263Z,18.93
2019-01-26T14:52:56.030Z,19.80
2019-01-26T14:55:27.554Z,18.50
2019-01-26T14:57:56.467Z,17.63
2019-01-26T15:00:30.715Z,17.23
2019-01-26T15:02:59.738Z,18.27
2019-01-26T15:05:29.092Z,13.67
2019-01-26T15:07:58.267Z,15.13
2019-01-26T15:10:27.363Z,15.50
2019-01-26T15:12:56.326Z,16.13
2019-01-26T15:15:25.384Z,15.73
2019-01-26T15:17:54.327Z,15.73
2019-01-26T15:20:27.256Z,14.87
2019-01-26T15:22:56.655Z,13.50
2019-01-26T15:25:26.054Z,14.00
2019-01-26T15:27:54.682Z,15.17
2019-01-26T15:30:27.641Z,13.90
2019-01-26T15:32:56.502Z,14.80
2019-01-26T15:35:25.272Z,15.60
2019-01-26T15:37:54.058Z,15.57
2019-01-26T15:40:23.009Z,15.63
2019-01-26T15:42:53.433Z,14.37
2019-01-26T15:45:51.818Z,14.47
2019-01-26T15:48:27.653Z,15.17
2019-01-26T15:50:56.866Z,15.93
2019-01-26T15:53:25.516Z,15.67
2019-01-26T15:55:54.599Z,16.90
2019-01-26T15:58:23.302Z,16.57
2019-01-26T16:00:55.324Z,14.90
2019-01-26T16:03:23.945Z,15.57
2019-01-26T16:05:52.836Z,15.37
2019-01-26T16:08:21.449Z,15.23
2019-01-26T16:10:50.164Z,15.57
2019-01-26T16:13:19.159Z,16.70
2019-01-26T16:15:48.163Z,15.27
2019-01-26T16:18:17.066Z,15.13
2019-01-26T16:20:45.707Z,17.00
2019-01-26T16:23:14.647Z,17.20
2019-01-26T16:25:43.701Z,17.53
2019-01-26T16:28:12.381Z,17.83
2019-01-26T16:43:29.038Z,19.10
2019-01-26T16:45:57.997Z,19.33
2019-01-26T16:48:26.903Z,20.63
2019-01-26T16:50:56.031Z,19.23
2019-01-26T16:53:26.048Z,20.27
2019-01-26T16:55:54.739Z,19.33
2019-01-26T16:58:23.426Z,21.77
2019-01-26T17:00:55.814Z,22.23
2019-01-26T17:03:25.373Z,25.23
2019-01-26T17:05:54.278Z,23.00
2019-01-26T17:08:23.156Z,23.50
2019-01-26T17:11:03.056Z,26.73
2019-01-26T17:13:36.232Z,24.40
2019-01-26T17:16:05.180Z,24.20
2019-01-26T17:18:34.074Z,24.10
2019-01-26T17:21:02.962Z,23.80
2019-01-26T17:23:31.597Z,23.53
2019-01-26T17:26:00.625Z,24.87
2019-01-26T17:28:29.754Z,22.93
2019-01-26T17:30:58.394Z,21.80
2019-01-26T17:33:27.578Z,23.87
2019-01-26T17:35:56.467Z,24.37
2019-01-26T17:38:25.248Z,26.23
2019-01-26T17:40:54.684Z,25.80
2019-01-26T17:43:24.061Z,23.83
2019-01-26T17:45:52.969Z,23.47
2019-01-26T17:48:21.726Z,24.23
2019-01-26T17:50:50.595Z,23.20
2019-01-26T17:53:19.462Z,24.37
2019-01-26T17:55:48.365Z,23.77
2019-01-26T17:58:17.021Z,23.47
2019-01-26T18:00:52.189Z,23.07
2019-01-26T18:03:21.683Z,23.50
2019-01-26T18:05:50.717Z,18.70
2019-01-26T18:08:19.660Z,24.93
2019-01-26T18:10:48.695Z,23.97
2019-01-26T18:13:17.779Z,25.63
2019-01-26T18:15:46.937Z,23.03
2019-01-26T18:18:16.065Z,21.73
2019-01-26T18:20:49.293Z,24.03
2019-01-26T18:23:17.739Z,23.23
2019-01-26T18:25:46.795Z,25.43
2019-01-26T18:28:15.614Z,22.70
2019-01-26T18:30:44.341Z,22.43
2019-01-26T18:33:13.068Z,23.65
2019-01-26T18:35:42.037Z,23.63
2019-01-26T18:38:10.953Z,20.60
2019-01-26T18:40:39.902Z,21.50
2019-01-26T18:43:08.781Z,22.33
2019-01-26T18:45:37.760Z,22.53
2019-01-26T18:48:07.430Z,23.17
2019-01-26T18:50:38.082Z,26.03
2019-01-26T18:53:07.049Z,27.30
2019-01-26T18:55:35.789Z,27.70
2019-01-26T18:58:04.734Z,25.23
2019-01-26T19:00:36.487Z,25.62
2019-01-26T19:03:21.897Z,27.20
2019-01-26T19:05:51.614Z,25.50
2019-01-26T19:08:20.506Z,25.17
2019-01-26T19:10:49.404Z,27.40
2019-01-26T19:13:18.114Z,25.63
2019-01-26T19:15:46.754Z,25.57
2019-01-26T19:18:15.416Z,24.05
2019-01-26T19:20:44.507Z,23.30
2019-01-26T19:23:13.281Z,25.07
2019-01-26T19:25:42.199Z,22.70
2019-01-26T19:28:13.980Z,22.73
2019-01-26T19:30:42.708Z,22.40
2019-01-26T19:33:11.401Z,22.07
2019-01-26T19:35:40.658Z,22.47
2019-01-26T19:38:09.641Z,20.73
2019-01-26T19:40:38.362Z,21.00
2019-01-26T19:43:08.725Z,19.80
2019-01-26T19:45:37.668Z,19.87
2019-01-26T19:48:06.661Z,22.50
2019-01-26T19:50:35.318Z,21.13
2019-01-26T19:53:04.461Z,19.67
2019-01-26T19:55:33.433Z,20.00
2019-01-26T19:58:02.417Z,19.37
2019-01-26T20:00:31.295Z,19.47
2019-01-26T20:03:00.011Z,20.77
2019-01-26T20:05:29.078Z,19.90
2019-01-26T20:07:58.186Z,20.33
2019-01-26T20:10:27.207Z,19.20
2019-01-26T20:12:55.837Z,20.03
2019-01-26T20:15:24.736Z,22.67
2019-01-26T20:17:53.738Z,21.07
2019-01-26T20:20:25.501Z,21.33
2019-01-26T20:22:54.491Z,19.23
2019-01-26T20:25:23.454Z,21.13
2019-01-26T20:27:52.349Z,22.75
2019-01-26T20:30:26.973Z,22.40
2019-01-26T20:32:56.108Z,24.73
2019-01-26T20:35:24.818Z,20.37
2019-01-26T20:37:53.566Z,20.63
2019-01-26T20:40:23.306Z,20.08
2019-01-26T20:42:52.254Z,19.17
2019-01-26T20:45:23.621Z,18.20
2019-01-26T20:47:52.510Z,16.80
2019-01-26T20:50:21.293Z,19.13
2019-01-26T20:52:50.330Z,18.80
2019-01-26T20:55:21.355Z,18.90
2019-01-26T20:57:50.381Z,17.47
2019-01-26T21:00:21.598Z,18.37
2019-01-26T21:02:50.561Z,18.07
2019-01-26T21:05:19.196Z,16.97
2019-01-26T21:07:47.936Z,15.57
2019-01-26T21:10:19.350Z,15.87
2019-01-26T21:12:50.050Z,18.50
2019-01-26T21:15:21.115Z,17.60
2019-01-26T21:17:50.056Z,17.10
2019-01-26T21:20:19.728Z,16.00
2019-01-26T21:22:49.042Z,13.67
2019-01-26T21:25:17.997Z,16.57
2019-01-26T21:27:47.095Z,13.83
2019-01-26T21:30:18.986Z,13.67
2019-01-26T21:32:47.994Z,12.90
2019-01-26T21:35:16.697Z,15.30
2019-01-26T21:37:45.834Z,15.57
2019-01-26T21:40:25.790Z,15.40
2019-01-26T21:42:58.675Z,15.50
2019-01-26T21:45:27.695Z,14.53
2019-01-26T21:47:56.458Z,15.13
2019-01-26T21:50:30.068Z,15.43
2019-01-26T21:52:59.397Z,13.13
2019-01-26T21:55:29.700Z,12.60
2019-01-26T21:57:58.861Z,11.17
2019-01-26T22:00:31.647Z,11.03
2019-01-26T22:03:06.318Z,10.70
2019-01-26T22:05:38.080Z,10.50
2019-01-26T22:08:08.260Z,10.23
2019-01-26T22:10:40.024Z,10.60
2019-01-26T22:13:10.381Z,10.40
2019-01-26T22:15:40.486Z,10.30
2019-01-26T22:18:10.437Z,11.07
2019-01-26T22:20:40.237Z,10.43
2019-01-26T22:23:09.596Z,10.73
2019-01-26T22:25:39.150Z,10.80
2019-01-26T22:28:08.398Z,10.90
2019-01-26T22:30:37.432Z,11.00
2019-01-26T22:33:06.765Z,10.63
2019-01-26T22:35:35.938Z,11.60
2019-01-26T22:38:05.547Z,11.20
2019-01-26T22:40:36.270Z,12.43
2019-01-26T22:43:05.571Z,11.80
2019-01-26T22:45:34.463Z,10.40
2019-01-26T22:48:03.223Z,15.70
2019-01-26T22:50:32.569Z,12.60
2019-01-26T22:53:01.412Z,13.47
2019-01-26T22:55:31.320Z,12.20
2019-01-26T22:58:00.312Z,12.77
2019-01-26T23:00:50.414Z,13.10
2019-01-26T23:03:21.065Z,13.43
2019-01-26T23:06:16.045Z,14.53
2019-01-26T23:08:45.786Z,11.17
2019-01-26T23:12:01.963Z,12.33
2019-01-26T23:14:49.079Z,12.47
2019-01-26T23:17:45.079Z,12.73
2019-01-26T23:20:24.219Z,12.63
2019-01-26T23:23:46.587Z,12.93
2019-01-26T23:26:46.388Z,13.27
2019-01-26T23:29:55.482Z,12.00
2019-01-26T23:32:24.388Z,13.70
2019-01-26T23:34:53.496Z,14.30
2019-01-26T23:37:22.730Z,15.23
2019-01-26T23:39:51.583Z,14.53
2019-01-26T23:42:20.387Z,16.03
2019-01-26T23:44:49.504Z,15.80
2019-01-26T23:47:18.132Z,17.87
2019-01-26T23:49:46.763Z,16.30
2019-01-26T23:52:15.747Z,14.53
2019-01-26T23:54:44.409Z,15.70
2019-01-26T23:57:23.746Z,16.83
2019-01-26T23:59:53.127Z,16.00
